createdAt,value
2022-10-26T00:01:45.349Z,7.90
2022-10-26T00:04:12.887Z,8.18
2022-10-26T00:06:40.583Z,7.53
2022-10-26T00:09:08.062Z,6.90
2022-10-26T00:11:35.469Z,7.07
2022-10-26T00:14:03.866Z,7.43
2022-10-26T00:16:31.595Z,7.38
2022-10-26T00:18:58.951Z,7.25
2022-10-26T00:21:26.311Z,7.72
2022-10-26T00:23:53.794Z,6.82
2022-10-26T00:26:21.398Z,7.18
2022-10-26T00:28:49.118Z,6.75
2022-10-26T00:31:17.817Z,6.88
2022-10-26T00:33:45.648Z,6.53
2022-10-26T00:36:16.983Z,6.32
2022-10-26T00:38:49.623Z,7.15
2022-10-26T00:41:19.246Z,6.38
2022-10-26T00:43:46.721Z,7.57
2022-10-26T00:46:35.207Z,7.00
2022-10-26T00:49:05.788Z,6.68
2022-10-26T00:51:40.158Z,7.53
2022-10-26T00:54:12.411Z,6.75
2022-10-26T00:56:40.851Z,7.10
2022-10-26T00:59:10.167Z,6.80
2022-10-26T01:01:40.677Z,6.13
2022-10-26T01:04:08.174Z,6.72
2022-10-26T01:06:38.227Z,7.82
2022-10-26T01:09:06.193Z,6.85
2022-10-26T01:11:33.552Z,6.13
2022-10-26T01:14:02.231Z,6.85
2022-10-26T01:16:51.897Z,5.85
2022-10-26T01:19:58.154Z,6.72
2022-10-26T01:22:30.359Z,6.85
2022-10-26T01:25:17.349Z,7.20
2022-10-26T01:27:47.746Z,6.70
2022-10-26T01:30:31.193Z,6.55
2022-10-26T01:33:16.038Z,6.63
2022-10-26T01:36:14.611Z,5.72
2022-10-26T01:39:07.186Z,5.95
2022-10-26T01:41:50.020Z,6.13
2022-10-26T01:44:33.927Z,6.68
2022-10-26T01:47:02.146Z,6.43
2022-10-26T01:49:33.691Z,6.40
2022-10-26T01:52:01.187Z,6.18
2022-10-26T01:54:29.555Z,7.25
2022-10-26T01:57:01.423Z,6.20
2022-10-26T01:59:56.264Z,5.70
2022-10-26T02:02:33.222Z,6.72
2022-10-26T02:05:26.388Z,6.93
2022-10-26T02:08:09.464Z,6.63
2022-10-26T02:11:30.703Z,6.28
2022-10-26T02:14:06.986Z,6.50
2022-10-26T02:16:52.804Z,5.78
2022-10-26T02:19:32.525Z,6.75
2022-10-26T02:22:13.328Z,6.55
2022-10-26T02:24:41.636Z,5.57
2022-10-26T02:27:12.957Z,6.40
2022-10-26T02:29:41.518Z,7.00
2022-10-26T02:32:09.484Z,6.35
2022-10-26T02:34:38.883Z,6.55
2022-10-26T02:37:07.202Z,6.70
2022-10-26T02:39:35.409Z,6.63
2022-10-26T02:42:05.166Z,6.88
2022-10-26T02:44:38.152Z,7.70
2022-10-26T02:47:05.645Z,6.82
2022-10-26T02:49:33.364Z,6.47
2022-10-26T02:52:08.891Z,7.20
2022-10-26T02:54:59.298Z,7.28
2022-10-26T02:57:32.601Z,7.20
2022-10-26T03:00:00.821Z,6.70
2022-10-26T03:02:30.345Z,7.07
2022-10-26T03:05:08.063Z,7.28
2022-10-26T03:07:35.542Z,6.70
2022-10-26T03:10:03.033Z,8.30
2022-10-26T03:12:30.535Z,6.65
2022-10-26T03:14:57.998Z,6.80
2022-10-26T03:17:25.713Z,6.40
2022-10-26T03:19:53.192Z,6.97
2022-10-26T03:22:20.790Z,7.45
2022-10-26T03:24:48.513Z,7.05
2022-10-26T03:27:16.009Z,6.28
2022-10-26T03:29:43.362Z,6.38
2022-10-26T03:32:10.843Z,8.48
2022-10-26T03:34:38.445Z,7.18
2022-10-26T03:37:06.308Z,7.60
2022-10-26T03:39:33.894Z,8.00
2022-10-26T03:42:01.252Z,7.43
2022-10-26T03:44:28.724Z,6.43
2022-10-26T03:46:56.083Z,7.57
2022-10-26T03:49:23.806Z,6.78
2022-10-26T03:51:51.292Z,6.97
2022-10-26T03:54:18.775Z,8.02
2022-10-26T03:56:46.155Z,6.72
2022-10-26T03:59:13.628Z,7.10
2022-10-26T04:01:41.184Z,8.05
2022-10-26T04:04:08.753Z,7.00
2022-10-26T04:06:37.429Z,7.10
2022-10-26T04:09:05.106Z,6.88
2022-10-26T04:11:32.588Z,7.50
2022-10-26T04:14:00.788Z,7.03
2022-10-26T04:16:31.119Z,6.75
2022-10-26T04:19:01.163Z,7.53
2022-10-26T04:21:28.641Z,6.28
2022-10-26T04:23:56.231Z,7.10
2022-10-26T04:26:23.724Z,6.32
2022-10-26T04:28:51.200Z,6.47
2022-10-26T04:31:18.682Z,6.25
2022-10-26T04:38:06.688Z,7.20
2022-10-26T04:40:34.881Z,6.38
2022-10-26T04:43:02.619Z,5.80
2022-10-26T04:45:31.256Z,6.70
2022-10-26T04:48:06.570Z,6.53
2022-10-26T04:50:34.289Z,6.35
2022-10-26T04:53:01.770Z,6.28
2022-10-26T04:55:29.254Z,6.13
2022-10-26T04:58:00.046Z,5.55
2022-10-26T05:00:30.463Z,5.78
2022-10-26T05:03:13.184Z,6.15
2022-10-26T05:05:40.794Z,5.75
2022-10-26T05:08:15.943Z,6.32
2022-10-26T05:10:43.563Z,5.65
2022-10-26T05:13:11.148Z,6.15
2022-10-26T05:15:38.526Z,5.75
2022-10-26T05:18:06.353Z,5.65
2022-10-26T05:20:38.512Z,6.20
2022-10-26T05:23:08.149Z,6.00
2022-10-26T05:25:36.234Z,5.32
2022-10-26T05:28:05.909Z,6.30
2022-10-26T05:30:33.485Z,5.97
2022-10-26T05:33:03.299Z,6.10
2022-10-26T05:35:31.680Z,5.95
2022-10-26T05:37:59.526Z,6.60
2022-10-26T05:40:27.009Z,5.50
2022-10-26T05:43:00.130Z,5.60
2022-10-26T05:45:27.979Z,5.55
2022-10-26T05:47:58.589Z,6.15
2022-10-26T05:50:29.299Z,6.40
2022-10-26T05:52:56.902Z,5.88
2022-10-26T05:55:24.856Z,5.32
2022-10-26T05:57:52.982Z,5.68
2022-10-26T06:00:23.231Z,6.20
2022-10-26T06:03:08.175Z,6.32
2022-10-26T06:05:46.935Z,6.28
2022-10-26T06:08:14.784Z,6.65
2022-10-26T06:10:42.386Z,6.07
2022-10-26T06:13:10.105Z,6.03
2022-10-26T06:15:50.111Z,5.97
2022-10-26T06:18:40.111Z,6.38
2022-10-26T06:21:23.074Z,6.90
2022-10-26T06:24:13.390Z,6.45
2022-10-26T06:26:59.555Z,6.10
2022-10-26T06:32:05.358Z,6.15
2022-10-26T06:34:36.287Z,6.53
2022-10-26T06:37:04.370Z,6.85
2022-10-26T06:39:36.529Z,6.35
2022-10-26T06:42:04.242Z,6.88
2022-10-26T06:44:32.088Z,6.80
2022-10-26T06:47:21.214Z,6.80
2022-10-26T06:50:05.574Z,5.95
2022-10-26T06:52:43.253Z,6.65
2022-10-26T06:55:15.677Z,6.20
2022-10-26T06:57:44.250Z,6.70
2022-10-26T07:00:15.150Z,6.82
2022-10-26T07:02:43.020Z,6.75
2022-10-26T07:05:13.146Z,6.72
2022-10-26T07:07:43.146Z,7.15
2022-10-26T07:10:11.351Z,7.15
2022-10-26T07:12:39.079Z,6.38
2022-10-26T07:17:48.756Z,7.65
2022-10-26T07:20:18.103Z,7.75
2022-10-26T07:22:45.675Z,7.90
2022-10-26T07:25:13.259Z,8.10
2022-10-26T07:27:44.246Z,8.55
2022-10-26T07:30:12.203Z,7.13
2022-10-26T07:32:39.682Z,7.32
2022-10-26T07:35:07.411Z,6.72
2022-10-26T07:37:34.880Z,6.70
2022-10-26T07:40:05.744Z,7.50
2022-10-26T07:46:48.212Z,7.50
2022-10-26T07:49:19.149Z,8.35
2022-10-26T07:51:47.147Z,9.10
2022-10-26T07:54:14.632Z,8.98
2022-10-26T07:56:42.105Z,8.90
2022-10-26T07:59:12.459Z,9.38
2022-10-26T08:01:39.965Z,9.50
2022-10-26T08:04:07.424Z,8.93
2022-10-26T08:06:34.900Z,9.57
2022-10-26T08:09:05.925Z,9.48
2022-10-26T08:11:37.198Z,9.57
2022-10-26T08:14:05.281Z,8.50
2022-10-26T08:16:34.914Z,8.32
2022-10-26T08:19:02.388Z,8.75
2022-10-26T08:21:40.315Z,9.40
2022-10-26T08:24:08.389Z,7.45
2022-10-26T08:26:35.996Z,7.28
2022-10-26T08:29:04.097Z,8.70
2022-10-26T08:31:31.577Z,8.68
2022-10-26T08:33:59.758Z,7.45
2022-10-26T08:36:28.320Z,7.13
2022-10-26T08:38:55.864Z,7.20
2022-10-26T08:41:38.404Z,8.15
2022-10-26T08:44:16.324Z,8.25
2022-10-26T08:46:46.812Z,7.63
2022-10-26T08:49:26.935Z,8.10
2022-10-26T08:51:58.337Z,7.70
2022-10-26T08:54:34.694Z,7.15
2022-10-26T08:57:10.834Z,8.55
2022-10-26T08:59:46.501Z,7.72
2022-10-26T09:04:44.794Z,7.28
2022-10-26T09:07:15.533Z,7.53
2022-10-26T09:10:06.384Z,8.38
2022-10-26T09:12:54.490Z,7.93
2022-10-26T09:15:28.295Z,9.23
2022-10-26T09:18:03.508Z,8.23
2022-10-26T09:25:40.038Z,9.32
2022-10-26T09:28:23.482Z,9.27
2022-10-26T09:31:05.452Z,8.68
2022-10-26T09:33:48.589Z,8.27
2022-10-26T09:36:21.304Z,10.48
2022-10-26T09:39:01.426Z,8.02
2022-10-26T09:41:40.880Z,8.80
2022-10-26T09:44:43.723Z,9.13
2022-10-26T09:47:20.093Z,7.50
2022-10-26T09:49:50.934Z,7.78
2022-10-26T09:52:18.415Z,7.90
2022-10-26T09:54:51.790Z,7.57
2022-10-26T09:57:23.580Z,7.00
2022-10-26T09:59:52.887Z,7.50
2022-10-26T10:02:41.254Z,7.07
2022-10-26T10:08:29.270Z,7.40
2022-10-26T10:11:04.667Z,6.65
2022-10-26T10:13:41.854Z,7.40
2022-10-26T10:16:21.680Z,7.38
2022-10-26T10:18:58.620Z,7.05
2022-10-26T10:21:40.638Z,6.93
2022-10-26T10:24:34.275Z,6.28
2022-10-26T10:27:06.452Z,6.30
2022-10-26T10:29:42.850Z,6.18
2022-10-26T10:32:26.127Z,5.13
2022-10-26T10:37:30.817Z,4.38
2022-10-26T10:40:08.198Z,3.70
2022-10-26T10:42:39.099Z,5.45
2022-10-26T10:45:32.249Z,3.95
2022-10-26T10:48:38.619Z,3.78
2022-10-26T10:51:12.789Z,3.30
2022-10-26T10:53:49.422Z,3.40
2022-10-26T10:56:41.615Z,2.38
2022-10-26T10:59:31.061Z,2.22
2022-10-26T11:02:23.553Z,2.35
2022-10-26T11:05:22.019Z,2.40
2022-10-26T11:07:57.345Z,2.67
2022-10-26T11:10:28.452Z,2.90
2022-10-26T11:13:02.512Z,2.33
2022-10-26T11:15:32.877Z,2.20
2022-10-26T11:18:20.169Z,2.40
2022-10-26T11:24:00.954Z,2.08
2022-10-26T11:26:33.951Z,1.95
2022-10-26T11:29:41.678Z,1.88
2022-10-26T11:32:22.088Z,1.92
2022-10-26T11:35:15.480Z,2.17
2022-10-26T11:37:54.966Z,2.65
2022-10-26T11:44:53.775Z,2.03
2022-10-26T11:47:34.939Z,2.20
2022-10-26T11:50:17.222Z,2.08
2022-10-26T11:53:04.810Z,1.77
2022-10-26T11:55:32.329Z,2.63
2022-10-26T11:58:00.265Z,2.25
2022-10-26T12:00:28.215Z,2.00
2022-10-26T12:03:07.224Z,1.77
2022-10-26T12:05:40.699Z,1.27
2022-10-26T12:08:23.301Z,1.77
2022-10-26T12:10:58.732Z,1.80
2022-10-26T12:13:35.905Z,1.50
2022-10-26T12:16:15.514Z,1.48
2022-10-26T12:18:55.969Z,1.65
2022-10-26T12:21:30.872Z,1.92
2022-10-26T12:23:59.312Z,1.83
2022-10-26T12:26:26.675Z,2.10
2022-10-26T12:29:03.396Z,1.65
2022-10-26T12:31:38.353Z,1.90
2022-10-26T12:34:24.165Z,1.70
2022-10-26T12:36:57.650Z,1.48
2022-10-26T12:39:35.211Z,1.90
2022-10-26T12:42:05.898Z,1.50
2022-10-26T12:44:41.250Z,1.50
2022-10-26T12:47:09.895Z,1.52
2022-10-26T12:49:59.927Z,1.85
2022-10-26T12:52:34.401Z,1.80
2022-10-26T12:55:36.651Z,1.40
2022-10-26T12:58:41.937Z,1.70
2022-10-26T13:01:22.888Z,1.60
2022-10-26T13:04:06.891Z,1.42
2022-10-26T13:07:06.775Z,1.77
2022-10-26T13:09:34.429Z,1.92
2022-10-26T13:12:05.592Z,1.77
2022-10-26T13:14:54.069Z,1.65
2022-10-26T13:17:30.360Z,1.42
2022-10-26T13:20:00.665Z,1.55
2022-10-26T13:27:05.596Z,1.58
2022-10-26T13:29:34.171Z,1.23
2022-10-26T13:32:01.881Z,1.48
2022-10-26T13:34:31.163Z,1.50
2022-10-26T13:37:23.956Z,1.33
2022-10-26T13:39:55.993Z,1.75
2022-10-26T13:42:28.570Z,1.33
2022-10-26T13:45:11.959Z,1.80
2022-10-26T13:47:50.503Z,1.42
2022-10-26T13:50:22.775Z,1.58
2022-10-26T13:53:01.456Z,1.50
2022-10-26T13:56:02.607Z,1.60
2022-10-26T13:58:46.165Z,1.27
2022-10-26T14:01:21.618Z,1.58
2022-10-26T14:03:49.899Z,1.63
2022-10-26T14:06:25.302Z,1.98
2022-10-26T14:11:24.829Z,1.45
2022-10-26T14:13:52.905Z,1.20
2022-10-26T14:16:29.621Z,1.48
2022-10-26T14:18:57.111Z,1.60
2022-10-26T14:21:24.620Z,2.10
2022-10-26T14:24:03.712Z,1.73
2022-10-26T14:26:39.950Z,1.98
2022-10-26T14:29:22.332Z,1.50
2022-10-26T14:31:50.758Z,1.80
2022-10-26T14:34:19.438Z,1.83
2022-10-26T14:36:49.972Z,1.90
2022-10-26T14:39:37.796Z,1.73
2022-10-26T14:42:17.888Z,2.03
2022-10-26T14:44:45.360Z,1.63
2022-10-26T14:47:15.478Z,1.70
2022-10-26T14:49:45.490Z,2.30
2022-10-26T14:52:18.606Z,1.92
2022-10-26T14:54:57.966Z,1.52
2022-10-26T14:57:34.330Z,1.40
2022-10-26T15:00:04.698Z,1.20
2022-10-26T15:02:32.410Z,1.77
2022-10-26T15:05:03.020Z,2.03
2022-10-26T15:07:38.418Z,2.90
2022-10-26T15:10:06.321Z,2.13
2022-10-26T15:12:38.538Z,1.60
2022-10-26T15:15:15.072Z,1.55
2022-10-26T15:17:53.907Z,1.30
2022-10-26T15:20:23.313Z,1.80
2022-10-26T15:22:59.425Z,2.45
2022-10-26T15:25:32.062Z,1.50
2022-10-26T15:28:21.639Z,1.60
2022-10-26T15:31:18.700Z,1.50
2022-10-26T15:33:52.356Z,1.83
2022-10-26T15:36:27.395Z,1.70
2022-10-26T15:38:55.612Z,1.52
2022-10-26T15:41:26.948Z,2.50
2022-10-26T15:43:57.293Z,1.63
2022-10-26T15:46:35.596Z,1.80
2022-10-26T15:49:05.921Z,1.70
2022-10-26T15:51:34.001Z,2.30
2022-10-26T15:54:05.208Z,1.88
2022-10-26T15:56:32.803Z,2.47
2022-10-26T15:59:00.310Z,2.47
2022-10-26T16:01:29.445Z,2.10
2022-10-26T16:03:57.212Z,2.45
2022-10-26T16:06:31.621Z,2.40
2022-10-26T16:09:01.745Z,2.38
2022-10-26T16:11:29.576Z,2.65
2022-10-26T16:13:59.646Z,2.33
2022-10-26T16:16:36.428Z,2.90
2022-10-26T16:22:01.591Z,3.08
2022-10-26T16:24:30.318Z,2.33
2022-10-26T16:26:58.020Z,2.97
2022-10-26T16:29:25.765Z,3.00
2022-10-26T16:31:53.599Z,2.63
2022-10-26T16:34:21.202Z,2.90
2022-10-26T16:36:48.800Z,3.47
2022-10-26T16:39:16.518Z,3.70
2022-10-26T16:41:43.993Z,3.90
2022-10-26T16:44:15.413Z,5.28
2022-10-26T16:46:47.527Z,4.43
2022-10-26T16:49:15.171Z,4.13
2022-10-26T16:51:43.656Z,10.25
2022-10-26T16:54:11.124Z,33.47
2022-10-26T16:56:39.152Z,18.63
2022-10-26T16:59:09.086Z,8.80
2022-10-26T17:01:36.698Z,7.70
2022-10-26T17:04:04.529Z,5.47
2022-10-26T17:06:31.890Z,4.40
2022-10-26T17:08:59.743Z,6.28
2022-10-26T17:11:27.221Z,5.07
2022-10-26T17:13:55.055Z,3.63
2022-10-26T17:16:23.856Z,4.10
2022-10-26T17:18:53.014Z,3.40
2022-10-26T17:21:28.663Z,4.25
2022-10-26T17:23:56.164Z,4.32
2022-10-26T17:26:23.737Z,3.75
2022-10-26T17:28:52.669Z,3.40
2022-10-26T17:31:20.393Z,4.43
2022-10-26T17:33:53.518Z,3.97
2022-10-26T17:36:22.612Z,3.35
2022-10-26T17:38:51.366Z,3.90
2022-10-26T17:41:23.540Z,3.70
2022-10-26T17:43:51.474Z,4.45
2022-10-26T17:46:21.238Z,4.35
2022-10-26T17:48:49.002Z,3.65
2022-10-26T17:51:18.726Z,3.70
2022-10-26T17:53:50.534Z,4.45
2022-10-26T17:56:19.686Z,4.05
2022-10-26T17:58:52.233Z,3.72
2022-10-26T18:01:19.742Z,3.83
2022-10-26T18:03:47.538Z,4.97
2022-10-26T18:06:15.139Z,4.88
2022-10-26T18:08:42.618Z,4.95
2022-10-26T18:11:14.802Z,4.13
2022-10-26T18:13:45.036Z,4.57
2022-10-26T18:16:17.299Z,4.32
2022-10-26T18:18:52.109Z,4.60
2022-10-26T18:21:20.305Z,4.93
2022-10-26T18:23:53.017Z,4.03
2022-10-26T18:26:22.463Z,4.90
2022-10-26T18:28:53.318Z,4.63
2022-10-26T18:31:22.952Z,5.45
2022-10-26T18:34:04.480Z,4.53
2022-10-26T18:36:33.072Z,5.68
2022-10-26T18:39:00.760Z,6.22
2022-10-26T18:41:28.351Z,6.07
2022-10-26T18:43:59.044Z,6.70
2022-10-26T18:46:29.076Z,7.15
2022-10-26T18:48:57.997Z,6.00
2022-10-26T18:51:30.764Z,5.88
2022-10-26T18:53:59.086Z,7.47
2022-10-26T18:56:27.424Z,5.72
2022-10-26T18:58:59.691Z,6.07
2022-10-26T19:01:28.457Z,6.57
2022-10-26T19:03:58.133Z,5.88
2022-10-26T19:06:26.454Z,6.05
2022-10-26T19:08:54.546Z,5.47
2022-10-26T19:11:23.479Z,6.53
2022-10-26T19:13:52.981Z,6.35
2022-10-26T19:16:40.627Z,6.10
2022-10-26T19:19:10.743Z,5.20
2022-10-26T19:21:50.822Z,5.63
2022-10-26T19:24:22.982Z,5.57
2022-10-26T19:26:51.311Z,5.10
2022-10-26T19:29:19.269Z,5.68
2022-10-26T19:31:47.826Z,4.72
2022-10-26T19:34:18.912Z,5.70
2022-10-26T19:36:48.796Z,5.40
2022-10-26T19:39:17.359Z,5.32
2022-10-26T19:41:45.928Z,4.90
2022-10-26T19:44:14.810Z,6.35
2022-10-26T19:46:43.710Z,6.30
2022-10-26T19:49:13.039Z,4.82
2022-10-26T19:51:40.788Z,6.20
2022-10-26T19:54:08.869Z,5.88
2022-10-26T19:56:37.323Z,5.93
2022-10-26T19:59:05.727Z,5.50
2022-10-26T20:01:33.278Z,6.95
2022-10-26T20:04:02.946Z,6.05
2022-10-26T20:06:31.216Z,7.57
2022-10-26T20:08:59.908Z,5.85
2022-10-26T20:11:27.526Z,5.78
2022-10-26T20:13:56.592Z,5.45
2022-10-26T20:16:25.335Z,6.28
2022-10-26T20:18:56.240Z,5.47
2022-10-26T20:21:29.428Z,5.47
2022-10-26T20:23:57.012Z,7.07
2022-10-26T20:26:28.215Z,5.40
2022-10-26T20:28:56.379Z,6.55
2022-10-26T20:31:24.056Z,5.38
2022-10-26T20:33:52.926Z,5.10
2022-10-26T20:36:21.112Z,6.55
2022-10-26T20:38:49.314Z,5.10
2022-10-26T20:41:17.160Z,6.43
2022-10-26T20:43:44.883Z,5.20
2022-10-26T20:46:21.484Z,6.43
2022-10-26T20:48:49.319Z,5.82
2022-10-26T20:51:26.373Z,5.30
2022-10-26T20:54:28.808Z,5.80
2022-10-26T20:56:57.511Z,5.82
2022-10-26T20:59:28.401Z,5.53
2022-10-26T21:01:55.955Z,4.68
2022-10-26T21:04:23.676Z,4.65
2022-10-26T21:06:51.378Z,4.57
2022-10-26T21:09:20.258Z,4.03
2022-10-26T21:11:49.585Z,5.80
2022-10-26T21:14:16.932Z,4.22
2022-10-26T21:16:44.427Z,4.40
2022-10-26T21:19:11.912Z,4.05
2022-10-26T21:21:39.376Z,4.22
2022-10-26T21:24:07.699Z,5.07
2022-10-26T21:26:35.190Z,3.75
2022-10-26T21:29:03.394Z,4.13
2022-10-26T21:35:54.026Z,3.78
2022-10-26T21:38:21.758Z,4.65
2022-10-26T21:40:49.110Z,4.57
2022-10-26T21:43:17.436Z,3.58
2022-10-26T21:45:44.933Z,4.15
2022-10-26T21:48:12.530Z,4.00
2022-10-26T21:50:41.434Z,3.80
2022-10-26T21:53:08.915Z,4.30
2022-10-26T21:55:36.515Z,4.20
2022-10-26T21:58:04.014Z,4.22
2022-10-26T22:00:31.743Z,5.10
2022-10-26T22:02:59.204Z,3.75
2022-10-26T22:05:26.581Z,4.20
2022-10-26T22:07:54.072Z,4.43
2022-10-26T22:10:22.975Z,4.22
2022-10-26T22:12:50.575Z,4.20
2022-10-26T22:17:51.413Z,3.97
2022-10-26T22:20:18.648Z,3.85
2022-10-26T22:22:45.705Z,4.60
2022-10-26T22:25:12.794Z,4.82
2022-10-26T22:27:39.876Z,3.90
2022-10-26T22:30:07.676Z,4.20
2022-10-26T22:32:34.730Z,4.47
2022-10-26T22:35:11.164Z,5.20
2022-10-26T22:37:49.007Z,4.30
2022-10-26T22:40:16.099Z,4.15
2022-10-26T22:42:43.182Z,4.72
2022-10-26T22:45:10.344Z,4.47
2022-10-26T22:47:37.403Z,3.65
2022-10-26T22:50:04.868Z,5.15
2022-10-26T22:52:31.973Z,4.20
2022-10-26T22:54:59.024Z,4.22
2022-10-26T22:57:26.103Z,4.78
2022-10-26T22:59:53.187Z,4.60
2022-10-26T23:02:20.291Z,4.18
2022-10-26T23:07:19.346Z,4.20
2022-10-26T23:09:46.374Z,4.10
2022-10-26T23:12:13.452Z,4.90
2022-10-26T23:14:40.540Z,5.22
2022-10-26T23:17:07.690Z,4.35
2022-10-26T23:19:34.765Z,4.82
2022-10-26T23:22:01.910Z,4.07
2022-10-26T23:24:28.950Z,4.60
2022-10-26T23:26:56.068Z,4.93
2022-10-26T23:29:23.094Z,3.97
2022-10-26T23:31:50.192Z,4.55
2022-10-26T23:34:17.273Z,4.78
2022-10-26T23:36:44.379Z,4.43
2022-10-26T23:39:11.402Z,5.03
2022-10-26T23:41:38.504Z,4.82
2022-10-26T23:44:05.589Z,4.53
2022-10-26T23:46:32.669Z,5.07
2022-10-26T23:48:59.753Z,4.68
2022-10-26T23:51:26.822Z,4.55
2022-10-26T23:53:54.155Z,5.45
2022-10-26T23:56:21.216Z,4.75
2022-10-26T23:58:51.271Z,4.70
